Time;durP1;ratioP1;P1;durP2;ratioP2;P2;SDS_P1;SDS_P2;PMS_P1;PMS_P2;Temp;Humidity;BMP_temperature;BMP_pressure;BME280_temperature;BME280_humidity;BME280_pressure;Samples;Min_cycle;Max_cycle;Signal;HPM_P1;HPM_P2
2022/08/17 00:01:47;;;;;;;12.48;9.27;;;;;;;26.15;100.00;100414.44;5102223;28;20020;-72
2022/08/17 00:04:33;;;;;;;10.80;8.95;;;;;;;25.98;100.00;100412.34;5103973;28;20038;-71
2022/08/17 00:07:19;;;;;;;11.27;9.13;;;;;;;26.24;100.00;100408.28;5104707;28;20360;-72
2022/08/17 00:10:05;;;;;;;11.30;8.65;;;;;;;26.21;100.00;100411.22;5102844;28;20027;-73
2022/08/17 00:12:51;;;;;;;14.48;8.75;;;;;;;26.20;100.00;100409.53;5104018;28;20031;-72
2022/08/17 00:15:37;;;;;;;13.38;9.32;;;;;;;26.30;100.00;100405.03;5103227;28;20043;-73
2022/08/17 00:18:24;;;;;;;11.98;9.05;;;;;;;26.12;100.00;100401.28;5103656;28;20024;-71
2022/08/17 00:21:11;;;;;;;10.90;8.95;;;;;;;25.44;100.00;100393.69;5101946;28;20127;-72
2022/08/17 00:23:57;;;;;;;11.50;8.95;;;;;;;25.76;100.00;100388.31;5102115;28;20075;-71
2022/08/17 00:26:43;;;;;;;10.25;9.23;;;;;;;25.97;100.00;100397.22;5101323;28;20120;-71
2022/08/17 00:29:28;;;;;;;11.52;9.32;;;;;;;25.94;100.00;100398.34;5097109;28;20020;-72
2022/08/17 00:32:14;;;;;;;10.60;8.98;;;;;;;26.08;100.00;100392.63;5095340;28;20043;-72
2022/08/17 00:35:07;;;;;;;10.00;9.00;;;;;;;25.88;100.00;100390.78;5095920;28;20059;-72
2022/08/17 00:37:53;;;;;;;13.63;9.30;;;;;;;25.72;100.00;100398.44;5095526;28;20032;-72
2022/08/17 00:40:42;;;;;;;11.80;9.15;;;;;;;25.47;100.00;100397.97;5094747;28;20036;-73
2022/08/17 00:43:41;;;;;;;12.93;8.73;;;;;;;25.78;100.00;100394.38;5095521;28;20031;-74
2022/08/17 00:46:35;;;;;;;14.77;9.60;;;;;;;25.37;100.00;100392.50;5095178;28;20034;-74
2022/08/17 00:49:23;;;;;;;11.23;9.18;;;;;;;25.34;100.00;100394.59;5095030;28;20020;-73
2022/08/17 00:52:15;;;;;;;16.45;9.70;;;;;;;25.33;100.00;100395.56;5095916;28;20035;-72
2022/08/17 00:55:02;;;;;;;11.18;9.55;;;;;;;25.14;100.00;100395.34;5079054;28;20093;-71
2022/08/17 00:57:52;;;;;;;12.63;9.63;;;;;;;25.23;100.00;100395.44;5080898;28;20119;-72
2022/08/17 01:00:44;;;;;;;10.18;9.05;;;;;;;25.18;100.00;100402.16;5095382;28;20446;-72
2022/08/17 01:03:30;;;;;;;13.82;9.68;;;;;;;24.64;100.00;100393.25;5095702;28;20093;-72
2022/08/17 01:06:16;;;;;;;14.50;9.55;;;;;;;24.99;100.00;100394.78;5095080;28;20032;-71
2022/08/17 01:09:03;;;;;;;13.18;10.27;;;;;;;25.02;100.00;100391.00;5079747;28;20035;-71
2022/08/17 01:11:52;;;;;;;12.93;9.98;;;;;;;25.07;100.00;100396.84;5095094;28;20032;-71
2022/08/17 01:14:38;;;;;;;12.77;9.85;;;;;;;24.99;100.00;100394.78;5094397;28;20338;-71
2022/08/17 01:17:26;;;;;;;13.50;10.13;;;;;;;25.33;100.00;100395.56;5094022;28;20059;-72
2022/08/17 01:20:11;;;;;;;11.13;9.80;;;;;;;25.08;100.00;100390.50;5081086;28;20081;-72
2022/08/17 01:22:58;;;;;;;13.77;10.57;;;;;;;25.08;100.00;100388.66;5094911;28;20028;-71
2022/08/17 01:25:45;;;;;;;12.35;9.30;;;;;;;24.95;100.00;100395.19;5094960;28;20092;-71
2022/08/17 01:28:34;;;;;;;13.73;9.90;;;;;;;25.03;100.00;100387.34;5093816;28;20028;-71
2022/08/17 01:31:20;;;;;;;12.13;9.43;;;;;;;25.13;100.00;100396.34;5094830;28;20140;-71
2022/08/17 01:34:10;;;;;;;14.73;10.07;;;;;;;25.48;100.00;100388.94;5093559;28;20028;-71
2022/08/17 01:36:56;;;;;;;11.48;9.93;;;;;;;25.55;100.00;100390.13;5094905;28;20020;-72
2022/08/17 01:39:48;;;;;;;12.68;9.90;;;;;;;25.47;100.00;100398.81;5095160;28;20039;-72
2022/08/17 01:42:40;;;;;;;11.77;9.70;;;;;;;25.25;100.00;100396.19;5094842;28;20101;-71
2022/08/17 01:45:30;;;;;;;11.82;9.60;;;;;;;25.41;100.00;100399.31;5079137;28;20028;-71
2022/08/17 01:48:20;;;;;;;13.75;11.55;;;;;;;25.49;100.00;100402.22;5094299;28;20344;-71
2022/08/17 01:51:06;;;;;;;11.07;9.88;;;;;;;25.15;100.00;100397.06;5095051;28;20086;-73
2022/08/17 01:53:57;;;;;;;13.18;10.18;;;;;;;25.07;100.00;100400.38;5094072;28;20395;-71
2022/08/17 01:56:46;;;;;;;12.73;10.50;;;;;;;25.38;100.00;100398.72;5079457;28;20032;-71
2022/08/17 01:59:32;;;;;;;13.43;9.73;;;;;;;25.44;100.00;100396.38;5078592;28;20016;-72
2022/08/17 02:02:18;;;;;;;12.15;9.80;;;;;;;25.36;100.00;100389.97;5093890;28;20042;-72
2022/08/17 02:05:05;;;;;;;11.82;9.55;;;;;;;25.13;100.00;100388.28;5092799;28;20349;-71
2022/08/17 02:07:51;;;;;;;11.98;10.52;;;;;;;25.24;100.00;100391.78;5095413;28;20035;-72
2022/08/17 02:10:37;;;;;;;13.98;9.73;;;;;;;25.38;100.00;100390.66;5093782;28;20028;-70
2022/08/17 02:13:23;;;;;;;17.40;10.75;;;;;;;25.35;100.00;100386.41;5093278;28;20066;-71
2022/08/17 02:16:08;;;;;;;11.88;9.93;;;;;;;25.18;100.00;100386.94;5094762;28;20048;-72
2022/08/17 02:18:54;;;;;;;11.75;9.95;;;;;;;25.37;100.00;100388.97;5098740;28;20085;-71
2022/08/17 02:21:42;;;;;;;14.23;10.00;;;;;;;25.38;100.00;100391.53;5083752;28;20452;-72
2022/08/17 02:24:33;;;;;;;14.57;10.07;;;;;;;25.35;100.00;100397.13;5098404;28;20063;-72
2022/08/17 02:27:19;;;;;;;19.52;10.23;;;;;;;25.44;100.00;100398.22;5097358;28;20028;-72
2022/08/17 02:30:07;;;;;;;12.77;10.10;;;;;;;25.45;100.00;100397.22;5098106;28;20032;-72
2022/08/17 02:32:53;;;;;;;12.40;9.85;;;;;;;25.37;100.00;100397.88;5098204;28;20367;-72
2022/08/17 02:35:39;;;;;;;11.00;8.93;;;;;;;25.38;100.00;100399.56;5097852;28;20465;-72
2022/08/17 02:38:25;;;;;;;14.25;9.65;;;;;;;25.25;100.00;100403.38;5083547;28;20121;-72
2022/08/17 02:41:11;;;;;;;11.27;10.15;;;;;;;25.35;100.00;100413.22;5082599;28;20024;-71
2022/08/17 02:43:57;;;;;;;11.77;10.43;;;;;;;25.42;100.00;100408.22;5096884;28;20039;-72
2022/08/17 02:46:43;;;;;;;11.93;9.45;;;;;;;25.17;100.00;100406.69;5096621;28;20043;-71
2022/08/17 02:49:29;;;;;;;16.33;10.13;;;;;;;25.06;100.00;100406.72;5096539;28;20036;-72
2022/08/17 02:52:15;;;;;;;10.43;9.38;;;;;;;25.13;100.00;100409.75;5083768;28;20032;-72
2022/08/17 02:55:00;;;;;;;17.58;10.15;;;;;;;24.99;100.00;100423.44;5096240;28;20071;-72
2022/08/17 02:57:47;;;;;;;12.55;9.63;;;;;;;25.10;100.00;100418.03;5096530;28;20024;-72
2022/08/17 03:00:40;;;;;;;15.30;9.73;;;;;;;25.18;100.00;100421.78;5097660;28;20436;-72
2022/08/17 03:03:25;;;;;;;12.23;9.63;;;;;;;25.31;100.00;100414.47;5082407;28;20119;-72
2022/08/17 03:06:11;;;;;;;10.07;8.98;;;;;;;24.68;100.00;100403.63;5097740;28;20027;-71
2022/08/17 03:08:57;;;;;;;12.05;9.60;;;;;;;24.77;100.00;100404.69;5097814;28;20032;-71
2022/08/17 03:11:43;;;;;;;14.95;9.80;;;;;;;24.54;100.00;100403.84;5096358;28;20039;-72
2022/08/17 03:14:31;;;;;;;11.60;9.88;;;;;;;24.80;100.00;100410.69;5097371;28;20037;-71
2022/08/17 03:17:16;;;;;;;16.35;9.75;;;;;;;24.83;100.00;100415.75;5096025;28;20039;-71
2022/08/17 03:20:04;;;;;;;10.90;9.80;;;;;;;25.16;100.00;100417.53;5096127;28;20027;-72
2022/08/17 03:22:53;;;;;;;13.13;10.13;;;;;;;25.14;100.00;100409.63;5097195;28;20036;-72
2022/08/17 03:25:42;;;;;;;14.57;10.45;;;;;;;24.95;100.00;100416.63;5096129;28;20399;-72
2022/08/17 03:28:27;;;;;;;11.20;9.68;;;;;;;24.91;100.00;100415.16;5096752;28;20098;-70
2022/08/17 03:31:13;;;;;;;14.82;10.10;;;;;;;24.87;100.00;100419.91;5096919;28;20038;-71
2022/08/17 03:33:59;;;;;;;15.65;10.77;;;;;;;24.83;100.00;100418.44;5095581;28;20024;-72
2022/08/17 03:36:45;;;;;;;14.73;9.75;;;;;;;24.74;100.00;100421.00;5082056;28;20046;-71
2022/08/17 03:39:31;;;;;;;12.65;9.85;;;;;;;24.89;100.00;100425.13;5095757;28;20019;-71
2022/08/17 03:42:22;;;;;;;13.13;10.32;;;;;;;24.89;100.00;100434.03;5097181;28;20031;-71
2022/08/17 03:45:14;;;;;;;11.75;10.23;;;;;;;25.01;100.00;100440.22;5095257;28;20024;-72
2022/08/17 03:57:14;;;;;;;14.10;10.35;;;;;;;24.77;100.00;100444.88;5096733;28;20023;-71
2022/08/17 03:59:59;;;;;;;11.82;10.15;;;;;;;25.15;100.00;100448.84;5095809;28;20082;-72
2022/08/17 04:02:45;;;;;;;13.45;10.15;;;;;;;25.14;100.00;100457.88;5095406;28;20032;-72
2022/08/17 04:05:31;;;;;;;13.02;9.95;;;;;;;25.12;100.00;100457.13;5095535;28;20031;-71
2022/08/17 04:08:17;;;;;;;14.82;9.68;;;;;;;25.23;100.00;100454.44;5096405;28;20062;-71
2022/08/17 04:11:02;;;;;;;11.02;9.75;;;;;;;25.13;100.00;100458.88;5095068;28;20039;-72
2022/08/17 04:13:48;;;;;;;13.25;9.65;;;;;;;25.28;100.00;100463.00;5081078;28;20031;-72
2022/08/17 04:16:35;;;;;;;13.50;9.93;;;;;;;25.33;100.00;100471.53;5094864;28;20020;-72
2022/08/17 04:19:22;;;;;;;13.77;9.85;;;;;;;25.33;100.00;100468.84;5096408;28;20090;-72
2022/08/17 04:22:08;;;;;;;13.40;10.18;;;;;;;25.26;100.00;100474.78;5095400;28;20028;-71
2022/08/17 04:24:53;;;;;;;16.27;10.25;;;;;;;25.33;100.00;100468.84;5095596;28;20380;-72
2022/08/17 04:27:39;;;;;;;14.65;10.00;;;;;;;25.33;100.00;100474.22;5094993;28;20394;-72
2022/08/17 04:30:28;;;;;;;12.20;10.23;;;;;;;25.31;100.00;100476.16;5095739;28;20046;-71
2022/08/17 04:33:25;;;;;;;12.82;10.02;;;;;;;25.03;100.00;100470.47;5096010;28;20020;-72
2022/08/17 04:36:13;;;;;;;15.05;10.13;;;;;;;25.25;100.00;100479.31;5096149;28;20024;-72
2022/08/17 04:39:00;;;;;;;15.35;10.40;;;;;;;25.40;100.00;100477.25;5095695;28;20012;-72
2022/08/17 04:44:50;;;;;;;14.35;10.63;;;;;;;25.42;100.00;100480.63;5095555;28;20460;-71
2022/08/17 04:47:36;;;;;;;18.60;11.40;;;;;;;24.73;100.00;100471.09;5094743;28;20481;-72
2022/08/17 04:50:22;;;;;;;18.70;11.85;;;;;;;25.09;100.00;100478.88;5095770;28;20054;-72
2022/08/17 04:53:08;;;;;;;24.70;11.50;;;;;;;25.25;100.00;100471.28;5095472;28;20052;-72
2022/08/17 04:55:56;;;;;;;17.95;11.77;;;;;;;25.01;100.00;100475.09;5095196;28;20444;-72
2022/08/17 04:58:48;;;;;;;19.25;12.35;;;;;;;24.89;100.00;100470.72;5094315;28;20034;-72
2022/08/17 05:01:36;;;;;;;21.38;11.85;;;;;;;24.88;100.00;100467.19;5095598;28;20370;-72
2022/08/17 05:04:24;;;;;;;18.48;12.15;;;;;;;24.78;100.00;100471.56;5095111;28;20024;-71
2022/08/17 05:07:10;;;;;;;18.35;11.18;;;;;;;25.08;100.00;100476.31;5095542;28;20393;-71
2022/08/17 05:09:56;;;;;;;23.48;11.82;;;;;;;25.08;100.00;100476.31;5094328;28;20032;-72
2022/08/17 05:12:42;;;;;;;15.70;10.80;;;;;;;25.25;100.00;100475.78;5094261;28;20020;-72
2022/08/17 05:15:29;;;;;;;17.92;10.35;;;;;;;25.47;100.00;100481.13;5094841;28;20024;-72
2022/08/17 05:18:16;;;;;;;18.42;9.93;;;;;;;25.74;100.00;100486.88;5095151;28;20032;-71
2022/08/17 05:21:02;;;;;;;15.73;10.35;;;;;;;25.69;100.00;100487.28;5079836;28;20020;-73
2022/08/17 05:23:48;;;;;;;17.83;9.77;;;;;;;25.39;100.00;100481.75;5094244;28;20032;-73
2022/08/17 05:26:33;;;;;;;16.30;9.38;;;;;;;25.74;100.00;100490.41;5094713;28;20460;-72
2022/08/17 05:29:19;;;;;;;13.25;9.15;;;;;;;26.18;100.00;100484.88;5080411;28;20035;-73
2022/08/17 05:32:09;;;;;;;17.02;10.55;;;;;;;26.13;100.00;100486.25;5093955;28;20024;-72
2022/08/17 05:34:58;;;;;;;15.90;9.30;;;;;;;26.23;100.00;100485.31;5095149;28;20034;-72
2022/08/17 05:37:44;;;;;;;10.52;8.27;;;;;;;26.05;100.00;100483.34;5093839;28;20019;-72
2022/08/17 05:40:30;;;;;;;12.60;9.80;;;;;;;26.32;100.00;100483.69;5094152;28;20035;-71
2022/08/17 05:43:26;;;;;;;12.48;9.48;;;;;;;26.24;100.00;100481.63;5094007;28;20028;-73
2022/08/17 05:46:22;;;;;;;13.88;8.75;;;;;;;26.35;100.00;100484.25;5093767;28;20052;-73
2022/08/17 05:49:09;;;;;;;13.73;8.95;;;;;;;26.34;100.00;100474.50;5093600;28;20032;-73
2022/08/17 05:52:10;;;;;;;11.27;8.80;;;;;;;26.14;100.00;100478.06;5094910;28;20070;-71
2022/08/17 05:55:02;;;;;;;11.43;8.48;;;;;;;26.79;100.00;100483.97;5098627;28;20127;-72
2022/08/17 05:58:17;;;;;;;13.88;8.30;;;;;;;26.75;100.00;100489.72;5097752;28;20024;-72
2022/08/17 06:01:15;;;;;;;9.95;8.45;;;;;;;26.82;100.00;100488.22;5097602;28;20023;-72
2022/08/17 06:04:19;;;;;;;14.52;8.68;;;;;;;26.71;100.00;100486.47;5098967;28;20042;-72
2022/08/17 06:07:55;;;;;;;11.90;8.75;;;;;;;26.87;100.00;100488.66;5097597;28;20023;-72
2022/08/17 06:11:05;;;;;;;16.95;8.60;;;;;;;26.67;100.00;100486.88;5057021;28;20040;-72
2022/08/17 06:13:57;;;;;;;9.80;8.70;;;;;;;26.67;100.00;100492.25;5099005;28;20020;-72
2022/08/17 06:16:47;;;;;;;11.73;9.48;;;;;;;26.68;100.00;100496.66;5083419;28;20035;-72
2022/08/17 06:19:38;;;;;;;11.35;9.00;;;;;;;26.54;100.00;100491.56;5098993;28;20460;-71
2022/08/17 06:22:33;;;;;;;12.75;9.48;;;;;;;26.81;100.00;100495.41;5098607;28;20039;-72
2022/08/17 06:25:36;;;;;;;17.77;9.48;;;;;;;26.95;100.00;100497.75;5098984;28;20027;-73
2022/08/17 06:28:52;;;;;;;13.52;8.80;;;;;;;27.07;100.00;100495.81;5098849;28;20035;-73
2022/08/17 06:31:41;;;;;;;13.38;9.82;;;;;;;27.25;100.00;100491.53;5097241;28;20036;-73
2022/08/17 06:34:28;;;;;;;13.70;9.90;;;;;;;27.39;100.00;100493.81;5098235;28;20035;-72
2022/08/17 06:37:44;;;;;;;13.68;9.52;;;;;;;27.32;100.00;100489.97;5097302;28;20044;-72
2022/08/17 06:40:51;;;;;;;12.93;9.80;;;;;;;27.77;100.00;100491.19;5096726;28;20100;-72
2022/08/17 06:43:42;;;;;;;15.65;9.43;;;;;;;27.52;100.00;100495.25;5097805;28;20031;-72
2022/08/17 06:46:36;;;;;;;13.82;9.27;;;;;;;27.80;100.00;100484.66;5098206;28;20031;-72
2022/08/17 06:49:29;;;;;;;14.02;8.65;;;;;;;27.70;100.00;100476.56;5098242;28;20024;-72
2022/08/17 06:52:26;;;;;;;15.38;8.90;;;;;;;28.03;100.00;100484.25;5098225;28;20214;-72
2022/08/17 06:55:19;;;;;;;17.02;9.90;;;;;;;28.20;100.00;100486.19;5097672;28;20055;-72
2022/08/17 06:58:06;;;;;;;16.67;10.23;;;;;;;28.29;100.00;100481.81;5097973;28;20035;-72
2022/08/17 07:00:57;;;;;;;15.52;9.57;;;;;;;28.23;100.00;100494.00;5096346;28;20024;-72
2022/08/17 07:03:53;;;;;;;17.38;9.25;;;;;;;28.37;100.00;100487.31;5097024;28;20098;-72
2022/08/17 07:06:58;;;;;;;14.68;9.55;;;;;;;28.15;100.00;100493.00;5096236;28;20085;-71
2022/08/17 07:09:44;;;;;;;12.05;9.25;;;;;;;28.45;100.00;100492.88;5097568;28;20028;-72
2022/08/17 07:12:37;;;;;;;18.25;9.95;;;;;;;28.73;100.00;100508.13;5097287;28;20024;-73
2022/08/17 07:15:41;;;;;;;14.30;9.27;;;;;;;28.71;100.00;100500.16;5097744;28;20028;-71
2022/08/17 07:18:28;;;;;;;13.18;8.52;;;;;;;28.89;100.00;100501.06;5096619;28;20028;-73
2022/08/17 07:21:42;;;;;;;13.48;8.75;;;;;;;29.19;100.00;100508.06;5096131;28;20109;-73
2022/08/17 07:24:36;;;;;;;11.98;8.93;;;;;;;29.04;100.00;100510.41;5095821;28;20042;-72
2022/08/17 07:27:26;;;;;;;14.18;8.15;;;;;;;29.20;98.08;100499.84;5097320;28;20115;-72
2022/08/17 07:30:32;;;;;;;13.60;8.68;;;;;;;29.05;99.25;100512.13;5095731;28;20039;-72
2022/08/17 07:33:29;;;;;;;11.52;8.23;;;;;;;28.69;100.00;100504.00;5096378;28;20114;-72
2022/08/17 07:36:25;;;;;;;11.35;8.38;;;;;;;29.43;97.27;100508.38;5097300;28;20032;-73
2022/08/17 07:39:11;;;;;;;10.23;8.30;;;;;;;29.40;97.35;100514.91;5081428;28;20024;-72
2022/08/17 07:42:03;;;;;;;9.25;7.70;;;;;;;29.39;96.13;100510.53;5096766;28;20028;-72
2022/08/17 07:44:54;;;;;;;10.75;7.88;;;;;;;29.63;93.43;100504.56;5096076;28;20042;-72
2022/08/17 07:50:53;;;;;;;11.10;8.20;;;;;;;30.19;89.61;100495.19;5096718;28;20355;-72
2022/08/17 07:53:40;;;;;;;10.15;7.82;;;;;;;30.05;88.28;100492.16;5095277;28;20063;-72
2022/08/17 07:56:40;;;;;;;10.55;7.68;;;;;;;30.30;86.01;100497.59;5095320;28;20047;-73
2022/08/17 07:59:31;;;;;;;10.10;8.18;;;;;;;30.70;83.70;100500.63;5096474;28;20024;-72
2022/08/17 08:02:37;;;;;;;13.93;8.68;;;;;;;30.40;83.37;100487.56;5096455;28;20032;-71
2022/08/17 08:05:27;;;;;;;13.73;7.75;;;;;;;30.32;84.25;100495.59;5096276;28;20078;-72
2022/08/17 08:08:36;;;;;;;13.80;8.10;;;;;;;31.08;80.07;100497.44;5095572;28;20418;-72
2022/08/17 08:11:30;;;;;;;10.25;7.78;;;;;;;31.27;77.23;100494.47;5096386;28;20107;-72
2022/08/17 08:14:23;;;;;;;11.60;8.05;;;;;;;31.54;75.58;100495.25;5094483;28;20069;-72
2022/08/17 08:17:10;;;;;;;11.88;7.72;;;;;;;30.35;80.80;100484.47;5095043;28;20035;-72
2022/08/17 08:19:58;;;;;;;13.32;8.13;;;;;;;31.45;75.51;100496.25;5096085;28;20032;-72
2022/08/17 08:22:56;;;;;;;11.88;7.80;;;;;;;31.84;73.83;100481.09;5095911;28;20024;-72
2022/08/17 08:25:50;;;;;;;11.02;7.93;;;;;;;31.68;73.50;100491.88;5095977;28;20097;-71
2022/08/17 08:28:54;;;;;;;8.93;7.45;;;;;;;32.54;68.18;100483.16;5095976;28;20111;-73
2022/08/17 08:32:18;;;;;;;10.18;7.47;;;;;;;33.15;65.47;100488.75;5094705;28;20031;-72
2022/08/17 08:35:16;;;;;;;12.93;7.70;;;;;;;33.25;63.15;100487.50;5080276;28;20036;-72
2022/08/17 08:38:37;;;;;;;10.88;7.45;;;;;;;32.74;65.86;100488.00;5095684;28;20031;-72
2022/08/17 08:41:37;;;;;;;15.35;9.00;;;;;;;32.63;65.72;100496.53;5095189;28;20038;-73
2022/08/17 08:44:46;;;;;;;13.82;9.63;;;;;;;33.07;62.93;100488.78;5095358;28;20016;-73
2022/08/17 08:47:40;;;;;;;15.88;8.32;;;;;;;33.23;61.80;100481.38;5094577;28;20032;-72
2022/08/17 08:50:39;;;;;;;9.93;7.25;;;;;;;33.76;59.56;100488.75;5095482;28;20034;-71
2022/08/17 08:53:31;;;;;;;8.27;7.20;;;;;;;33.74;57.52;100482.63;5095137;28;20066;-71
2022/08/17 08:56:33;;;;;;;11.55;7.90;;;;;;;33.64;56.74;100482.91;5095115;28;20043;-72
2022/08/17 08:59:40;;;;;;;9.88;7.60;;;;;;;33.74;58.19;100483.50;5093933;28;20039;-72
2022/08/17 09:02:32;;;;;;;11.80;7.65;;;;;;;33.75;56.71;100482.47;5095101;28;20024;-72
2022/08/17 09:06:00;;;;;;;12.38;7.13;;;;;;;33.73;56.92;100486.38;5094627;28;20027;-73
2022/08/17 09:09:14;;;;;;;8.98;6.65;;;;;;;33.85;55.29;100490.41;5094454;28;20031;-72
2022/08/17 09:12:04;;;;;;;12.48;7.82;;;;;;;33.92;55.58;100475.94;5094305;28;20528;-72
2022/08/17 09:14:56;;;;;;;9.38;7.13;;;;;;;34.25;54.58;100482.78;5095406;28;20032;-72
2022/08/17 09:17:54;;;;;;;9.23;7.00;;;;;;;33.42;55.68;100485.56;5095505;28;20442;-72
2022/08/17 09:20:55;;;;;;;9.95;7.10;;;;;;;34.08;53.13;100474.94;5094853;28;20031;-72
2022/08/17 09:23:58;;;;;;;8.07;7.22;;;;;;;34.50;53.07;100475.25;5095356;28;20352;-72
2022/08/17 09:27:13;;;;;;;9.68;6.90;;;;;;;34.47;51.33;100467.47;5094282;28;20344;-72
2022/08/17 09:30:07;;;;;;;10.00;7.07;;;;;;;34.27;52.21;100475.25;5095206;28;20020;-72
2022/08/17 09:32:58;;;;;;;10.55;7.25;;;;;;;34.37;52.40;100465.00;5094047;28;20032;-72
2022/08/17 09:35:51;;;;;;;11.75;8.10;;;;;;;33.81;53.28;100475.47;5094450;28;20036;-72
2022/08/17 09:38:51;;;;;;;8.65;7.32;;;;;;;33.78;52.50;100464.94;5094134;28;20444;-72
2022/08/17 09:41:44;;;;;;;8.27;6.60;;;;;;;33.89;53.13;100470.00;5094918;28;20059;-72
2022/08/17 09:44:37;;;;;;;10.05;7.25;;;;;;;34.30;51.69;100464.03;5094458;28;20130;-73
2022/08/17 09:48:07;;;;;;;11.10;7.05;;;;;;;34.02;51.43;100462.91;5094023;28;20060;-73
2022/08/17 09:51:02;;;;;;;8.55;6.95;;;;;;;34.42;51.48;100464.44;4993646;28;20072;-73
2022/08/17 09:53:49;;;;;;;8.05;6.95;;;;;;;34.20;51.12;100473.47;5000289;28;20046;-72
2022/08/17 09:56:52;;;;;;;10.20;7.18;;;;;;;34.49;50.14;100463.53;5092594;28;20051;-72
2022/08/17 09:59:54;;;;;;;12.90;7.40;;;;;;;34.65;50.62;100468.78;5094916;28;20330;-72
2022/08/17 10:03:04;;;;;;;10.20;7.25;;;;;;;34.55;49.41;100470.94;5093825;28;20039;-73
2022/08/17 10:06:05;;;;;;;12.30;7.32;;;;;;;34.37;48.53;100458.72;5093971;28;20024;-72
2022/08/17 10:09:32;;;;;;;8.68;6.78;;;;;;;34.48;48.95;100461.00;5094276;28;20024;-72
2022/08/17 10:12:28;;;;;;;10.30;6.70;;;;;;;34.69;48.85;100459.22;5013545;28;20037;-72
2022/08/17 10:15:18;;;;;;;8.27;6.88;;;;;;;34.82;48.24;100458.56;5093720;28;20039;-72
2022/08/17 10:18:20;;;;;;;9.45;6.88;;;;;;;34.56;47.67;100452.75;5094274;28;20024;-72
2022/08/17 10:27:51;;;;;;;10.95;6.95;;;;;;;34.05;47.30;100446.25;5094427;28;20042;-74
2022/08/17 10:30:46;;;;;;;8.65;6.95;;;;;;;33.64;49.05;100433.13;5094000;28;20036;-71
2022/08/17 10:33:56;;;;;;;11.00;6.40;;;;;;;34.23;47.70;100424.97;5093598;28;20031;-73
2022/08/17 10:37:05;;;;;;;8.27;6.03;;;;;;;34.53;47.59;100423.16;5093270;28;20032;-72
2022/08/17 10:40:26;;;;;;;9.55;6.50;;;;;;;34.91;46.22;100416.59;5097018;28;20032;-74
2022/08/17 10:43:24;;;;;;;8.57;6.30;;;;;;;35.28;46.14;100418.31;5017637;28;20030;-75
2022/08/17 10:46:40;;;;;;;10.90;6.72;;;;;;;35.44;45.43;100424.41;5096566;28;20031;-75
2022/08/17 10:49:31;;;;;;;8.60;5.93;;;;;;;35.50;43.39;100417.31;5069660;28;20402;-71
2022/08/17 10:52:26;;;;;;;7.00;6.13;;;;;;;34.97;44.59;100413.97;5096611;28;20486;-72
2022/08/17 10:55:17;;;;;;;6.90;5.63;;;;;;;34.94;44.83;100411.63;5096841;28;20066;-72
2022/08/17 10:58:20;;;;;;;7.95;5.85;;;;;;;35.41;43.89;100411.16;5097954;28;20055;-73
2022/08/17 11:01:07;;;;;;;8.48;6.35;;;;;;;35.55;42.88;100406.69;5083175;28;20023;-72
2022/08/17 11:03:56;;;;;;;6.38;5.43;;;;;;;35.12;42.94;100414.78;5097693;28;20028;-72
2022/08/17 11:07:00;;;;;;;7.28;5.05;;;;;;;35.51;41.31;100406.22;5097987;28;20032;-73
2022/08/17 11:10:29;;;;;;;11.77;5.80;;;;;;;35.75;42.57;100397.69;5097455;28;20436;-73
2022/08/17 11:13:16;;;;;;;8.73;5.95;;;;;;;35.95;41.93;100403.34;5075241;28;20040;-73
2022/08/17 11:16:08;;;;;;;8.95;5.35;;;;;;;36.08;39.86;100400.69;5082489;28;20046;-72
2022/08/17 11:19:08;;;;;;;8.20;5.22;;;;;;;35.86;38.70;100393.56;5098019;28;20371;-72
2022/08/17 11:22:18;;;;;;;6.20;4.55;;;;;;;35.75;39.14;100397.69;5095773;28;20114;-72
2022/08/17 11:25:19;;;;;;;6.90;4.88;;;;;;;35.32;39.41;100390.53;5095996;28;20428;-72
2022/08/17 11:28:18;;;;;;;7.30;4.72;;;;;;;35.70;38.99;100386.50;5096930;28;20031;-71
2022/08/17 11:31:08;;;;;;;6.05;4.40;;;;;;;35.65;38.95;100386.25;5097058;28;20039;-72
2022/08/17 11:34:00;;;;;;;8.23;4.88;;;;;;;36.01;38.15;100372.53;5095881;28;20067;-72
2022/08/17 11:37:16;;;;;;;5.25;4.70;;;;;;;35.59;39.20;100386.19;5096673;28;20023;-72
2022/08/17 11:40:10;;;;;;;5.72;4.75;;;;;;;36.29;38.14;100379.69;5096215;28;20016;-73
2022/08/17 11:43:06;;;;;;;5.63;5.05;;;;;;;36.38;37.51;100372.19;5096879;28;20027;-72
2022/08/17 11:46:06;;;;;;;6.50;4.43;;;;;;;36.46;37.72;100372.00;5096197;28;20024;-72
2022/08/17 11:52:03;;;;;;;7.03;4.70;;;;;;;35.89;38.54;100365.91;5096603;28;20024;-73
2022/08/17 11:54:48;;;;;;;7.75;5.15;;;;;;;36.33;38.49;100361.03;5095653;28;20055;-72
2022/08/17 11:57:40;;;;;;;7.20;5.05;;;;;;;36.39;37.60;100361.06;5067289;28;20110;-72
2022/08/17 12:00:45;;;;;;;8.68;4.63;;;;;;;36.59;36.32;100358.44;5096278;28;20111;-71
2022/08/17 12:03:31;;;;;;;6.32;4.60;;;;;;;36.78;35.33;100360.44;5096139;28;20471;-72
2022/08/17 12:07:07;;;;;;;4.53;4.13;;;;;;;37.12;35.10;100361.19;5096280;28;20122;-72
2022/08/17 12:09:56;;;;;;;6.80;4.38;;;;;;;37.07;35.65;100360.97;4998086;28;20061;-72
2022/08/17 12:12:43;;;;;;;5.57;4.20;;;;;;;37.16;36.06;100351.56;5095433;28;20028;-73
2022/08/17 12:15:34;;;;;;;6.38;4.30;;;;;;;37.12;35.37;100350.25;5096117;28;20024;-72
2022/08/17 12:18:28;;;;;;;6.65;4.70;;;;;;;36.61;36.41;100359.94;5094583;28;20027;-72
2022/08/17 12:21:37;;;;;;;5.40;4.20;;;;;;;36.99;35.70;100349.38;5094901;28;20020;-73
2022/08/17 12:24:46;;;;;;;7.13;4.68;;;;;;;36.46;36.05;100352.91;5096001;28;20043;-73
2022/08/17 12:27:35;;;;;;;5.65;4.55;;;;;;;37.10;36.05;100340.59;5096352;28;20032;-73
2022/08/17 12:30:21;;;;;;;6.35;4.57;;;;;;;37.10;35.04;100337.88;5096366;28;20028;-73
2022/08/17 12:33:12;;;;;;;7.70;4.85;;;;;;;37.12;35.97;100330.31;5094727;28;20031;-72
2022/08/17 12:36:04;;;;;;;7.85;5.10;;;;;;;37.10;35.75;100326.94;5096141;28;20020;-73
2022/08/17 12:38:58;;;;;;;8.50;4.50;;;;;;;36.74;35.45;100334.59;5095801;28;20156;-72
2022/08/17 12:41:47;;;;;;;7.03;4.75;;;;;;;36.56;36.16;100329.66;5080367;28;20032;-73
2022/08/17 12:44:35;;;;;;;5.60;4.88;;;;;;;36.75;34.82;100319.88;5094984;28;20205;-72
2022/08/17 12:47:20;;;;;;;5.40;4.53;;;;;;;36.54;34.73;100319.97;5094615;28;20027;-71
2022/08/17 12:50:12;;;;;;;6.82;4.55;;;;;;;36.95;33.90;100332.56;5095680;28;20020;-72
2022/08/17 12:52:59;;;;;;;6.97;4.50;;;;;;;36.21;35.01;100321.66;5095820;28;20023;-71
2022/08/17 12:55:45;;;;;;;5.95;4.63;;;;;;;35.96;35.40;100324.00;5094505;28;20111;-72
2022/08/17 12:58:36;;;;;;;6.90;4.90;;;;;;;35.34;36.15;100309.41;5093756;28;20035;-72
2022/08/17 13:01:23;;;;;;;8.02;4.55;;;;;;;35.35;35.87;100311.09;5093861;28;20020;-73
2022/08/17 13:04:13;;;;;;;9.10;4.72;;;;;;;35.67;35.05;100312.44;5094309;28;20043;-73
2022/08/17 13:06:58;;;;;;;5.43;4.47;;;;;;;35.82;35.77;100321.38;5080617;28;20024;-73
2022/08/17 13:09:50;;;;;;;4.80;4.18;;;;;;;36.08;34.14;100322.41;5094415;28;20028;-72
2022/08/17 13:12:37;;;;;;;4.88;4.18;;;;;;;36.71;32.79;100322.19;5094475;28;20043;-72
2022/08/17 13:15:39;;;;;;;10.98;4.38;;;;;;;36.41;33.28;100318.03;5094353;28;20028;-72
2022/08/17 13:18:40;;;;;;;4.88;4.25;;;;;;;36.53;32.69;100313.69;5094110;28;20024;-72
2022/08/17 13:21:29;;;;;;;5.30;4.60;;;;;;;36.58;32.75;100318.53;5095056;28;20032;-72
2022/08/17 13:24:26;;;;;;;5.07;4.57;;;;;;;36.40;32.77;100315.50;5079860;28;20038;-72
2022/08/17 13:27:14;;;;;;;6.32;4.40;;;;;;;36.23;32.94;100314.16;5094722;28;20032;-73
2022/08/17 13:30:11;;;;;;;6.15;4.80;;;;;;;36.44;33.07;100312.16;5093797;28;20028;-72
2022/08/17 13:32:58;;;;;;;4.95;4.45;;;;;;;36.82;32.93;100305.22;5095135;28;20020;-72
2022/08/17 13:35:45;;;;;;;5.40;4.68;;;;;;;36.65;33.39;100311.22;5094792;28;20028;-72
2022/08/17 13:39:04;;;;;;;5.15;4.65;;;;;;;36.67;33.25;100309.97;5095497;28;20032;-72